createdAt,value
2024-02-26T00:01:53.586Z,2.60
2024-02-26T00:04:20.900Z,2.97
2024-02-26T00:06:49.125Z,2.72
2024-02-26T00:09:16.314Z,2.70
2024-02-26T00:11:43.521Z,2.53
2024-02-26T00:14:10.643Z,3.17
2024-02-26T00:16:37.623Z,2.13
2024-02-26T00:19:05.033Z,2.33
2024-02-26T00:21:32.097Z,3.03
2024-02-26T00:23:59.205Z,2.38
2024-02-26T00:26:26.164Z,2.60
2024-02-26T00:28:53.256Z,2.47
2024-02-26T00:31:20.300Z,2.60
2024-02-26T00:33:47.526Z,2.30
2024-02-26T00:36:14.639Z,2.53
2024-02-26T00:38:42.305Z,2.45
2024-02-26T00:41:09.285Z,2.50
2024-02-26T00:43:36.331Z,2.40
2024-02-26T00:46:03.548Z,2.53
2024-02-26T00:48:30.793Z,2.70
2024-02-26T00:50:57.999Z,2.75
2024-02-26T00:53:26.231Z,2.47
2024-02-26T00:55:53.404Z,2.28
2024-02-26T00:58:20.469Z,2.65
2024-02-26T01:00:47.489Z,2.40
2024-02-26T01:03:14.633Z,2.45
2024-02-26T01:05:41.949Z,2.78
2024-02-26T01:08:09.670Z,2.97
2024-02-26T01:10:36.732Z,2.63
2024-02-26T01:13:04.132Z,3.03
2024-02-26T01:15:31.075Z,2.30
2024-02-26T01:17:58.143Z,2.20
2024-02-26T01:20:25.329Z,2.45
2024-02-26T01:22:52.285Z,2.80
2024-02-26T01:25:19.515Z,2.58
2024-02-26T01:27:46.559Z,2.72
2024-02-26T01:30:13.869Z,2.88
2024-02-26T01:32:41.208Z,2.70
2024-02-26T01:35:11.435Z,2.90
2024-02-26T01:37:39.335Z,2.22
2024-02-26T01:40:08.488Z,2.55
2024-02-26T01:42:35.671Z,2.20
2024-02-26T01:45:03.548Z,2.50
2024-02-26T01:47:30.736Z,2.50
2024-02-26T01:49:58.582Z,2.38
2024-02-26T01:52:26.562Z,2.42
2024-02-26T01:54:53.932Z,2.30
2024-02-26T01:57:21.401Z,2.00
2024-02-26T01:59:48.509Z,2.13
2024-02-26T02:02:17.261Z,2.33
2024-02-26T02:04:44.498Z,2.03
2024-02-26T02:07:11.872Z,2.05
2024-02-26T02:09:39.202Z,1.98
2024-02-26T02:12:07.589Z,2.42
2024-02-26T02:14:34.632Z,2.53
2024-02-26T02:17:01.671Z,2.30
2024-02-26T02:19:28.727Z,2.05
2024-02-26T02:21:55.824Z,2.30
2024-02-26T02:24:22.914Z,1.90
2024-02-26T02:26:49.969Z,2.03
2024-02-26T02:29:17.159Z,2.00
2024-02-26T02:31:44.256Z,1.83
2024-02-26T02:34:11.389Z,1.80
2024-02-26T02:36:50.673Z,2.10
2024-02-26T02:39:17.949Z,1.70
2024-02-26T02:41:45.237Z,2.08
2024-02-26T02:44:12.333Z,1.90
2024-02-26T02:46:40.277Z,2.15
2024-02-26T02:49:11.791Z,1.70
2024-02-26T02:51:39.194Z,1.80
2024-02-26T02:54:06.499Z,1.70
2024-02-26T02:56:33.617Z,1.70
2024-02-26T02:59:02.654Z,1.65
2024-02-26T03:01:29.839Z,1.90
2024-02-26T03:03:56.806Z,1.80
2024-02-26T03:06:24.526Z,1.80
2024-02-26T03:08:51.732Z,1.73
2024-02-26T03:11:18.958Z,1.83
2024-02-26T03:13:46.064Z,1.70
2024-02-26T03:16:13.293Z,1.58
2024-02-26T03:18:41.652Z,1.67
2024-02-26T03:21:09.047Z,1.70
2024-02-26T03:23:39.304Z,1.70
2024-02-26T03:26:06.731Z,1.95
2024-02-26T03:28:34.618Z,1.48
2024-02-26T03:31:03.923Z,1.60
2024-02-26T03:33:31.315Z,1.63
2024-02-26T03:35:58.412Z,1.50
2024-02-26T03:38:25.569Z,1.60
2024-02-26T03:40:52.702Z,1.60
2024-02-26T03:43:19.702Z,1.40
2024-02-26T03:45:46.708Z,1.45
2024-02-26T03:48:13.986Z,1.40
2024-02-26T03:50:41.181Z,1.40
2024-02-26T03:53:12.850Z,1.60
2024-02-26T03:55:43.112Z,1.40
2024-02-26T03:58:10.522Z,1.45
2024-02-26T04:00:38.622Z,1.80
2024-02-26T04:03:06.414Z,1.50
2024-02-26T04:05:33.404Z,1.40
2024-02-26T04:08:00.326Z,1.45
2024-02-26T04:10:27.562Z,1.50
2024-02-26T04:12:54.555Z,1.40
2024-02-26T04:15:21.717Z,1.52
2024-02-26T04:17:48.854Z,1.90
2024-02-26T04:20:17.136Z,1.58
2024-02-26T04:22:44.474Z,1.27
2024-02-26T04:25:11.705Z,1.40
2024-02-26T04:27:39.769Z,1.38
2024-02-26T04:30:08.476Z,1.40
2024-02-26T04:32:36.307Z,1.35
2024-02-26T04:35:04.348Z,1.48
2024-02-26T04:37:32.747Z,1.20
2024-02-26T04:40:00.974Z,1.20
2024-02-26T04:42:28.860Z,1.30
2024-02-26T04:44:56.686Z,1.55
2024-02-26T04:47:24.061Z,1.23
2024-02-26T04:49:52.477Z,1.25
2024-02-26T04:52:20.213Z,1.40
2024-02-26T04:54:47.296Z,1.40
2024-02-26T04:57:14.558Z,1.38
2024-02-26T04:59:44.039Z,1.67
2024-02-26T05:02:12.463Z,2.40
2024-02-26T05:04:39.657Z,1.30
2024-02-26T05:07:06.892Z,1.60
2024-02-26T05:09:34.334Z,1.52
2024-02-26T05:12:01.690Z,1.63
2024-02-26T05:14:28.786Z,1.60
2024-02-26T05:16:55.865Z,1.65
2024-02-26T05:19:23.336Z,1.23
2024-02-26T05:21:51.789Z,1.40
2024-02-26T05:24:19.524Z,1.40
2024-02-26T05:26:47.248Z,1.25
2024-02-26T05:29:14.276Z,1.30
2024-02-26T05:31:43.764Z,1.50
2024-02-26T05:34:11.092Z,1.40
2024-02-26T05:36:38.283Z,1.30
2024-02-26T05:39:05.406Z,1.38
2024-02-26T05:41:32.698Z,1.20
2024-02-26T05:44:00.470Z,1.38
2024-02-26T05:46:28.641Z,1.30
2024-02-26T05:48:56.183Z,1.20
2024-02-26T05:51:23.459Z,1.42
2024-02-26T05:53:55.839Z,1.17
2024-02-26T05:56:23.962Z,1.45
2024-02-26T05:58:51.896Z,1.50
2024-02-26T06:01:19.328Z,1.60
2024-02-26T06:03:46.777Z,1.50
2024-02-26T06:06:15.825Z,1.65
2024-02-26T06:08:42.999Z,1.88
2024-02-26T06:11:10.987Z,1.20
2024-02-26T06:13:38.080Z,1.10
2024-02-26T06:16:05.963Z,1.40
2024-02-26T06:18:33.468Z,1.30
2024-02-26T06:21:00.940Z,1.48
2024-02-26T06:23:28.107Z,1.38
2024-02-26T06:25:55.247Z,1.20
2024-02-26T06:28:22.204Z,1.35
2024-02-26T06:30:49.269Z,1.10
2024-02-26T06:33:16.596Z,1.23
2024-02-26T06:35:43.796Z,1.50
2024-02-26T06:38:12.925Z,1.08
2024-02-26T06:40:40.156Z,1.17
2024-02-26T06:43:07.302Z,1.50
2024-02-26T06:45:34.458Z,1.17
2024-02-26T06:48:02.322Z,1.30
2024-02-26T06:50:29.474Z,1.20
2024-02-26T06:52:56.427Z,1.40
2024-02-26T06:55:23.592Z,1.00
2024-02-26T06:57:50.705Z,1.13
2024-02-26T07:00:18.311Z,1.15
2024-02-26T07:02:45.690Z,1.30
2024-02-26T07:05:13.861Z,1.33
2024-02-26T07:07:41.779Z,1.10
2024-02-26T07:10:09.563Z,1.05
2024-02-26T07:12:36.712Z,1.13
2024-02-26T07:15:04.094Z,1.00
2024-02-26T07:17:31.372Z,1.35
2024-02-26T07:19:58.531Z,1.30
2024-02-26T07:22:25.873Z,1.00
2024-02-26T07:24:53.171Z,1.02
2024-02-26T07:27:20.386Z,1.35
2024-02-26T07:29:47.950Z,1.35
2024-02-26T07:32:15.502Z,1.17
2024-02-26T07:34:46.356Z,1.40
2024-02-26T07:37:13.714Z,1.98
2024-02-26T07:39:40.972Z,2.00
2024-02-26T07:42:08.278Z,1.60
2024-02-26T07:44:35.376Z,1.50
2024-02-26T07:47:02.679Z,1.40
2024-02-26T07:49:30.096Z,1.30
2024-02-26T07:51:59.475Z,1.30
2024-02-26T07:54:26.740Z,1.60
2024-02-26T07:56:53.854Z,1.52
2024-02-26T07:59:20.916Z,1.23
2024-02-26T08:01:58.564Z,1.88
2024-02-26T08:04:28.247Z,1.52
2024-02-26T08:06:55.725Z,1.58
2024-02-26T08:09:23.040Z,1.00
2024-02-26T08:11:50.376Z,0.98
2024-02-26T08:14:17.476Z,1.63
2024-02-26T08:16:44.499Z,1.20
2024-02-26T08:19:14.764Z,1.50
2024-02-26T08:21:42.734Z,1.40
2024-02-26T08:24:09.770Z,1.45
2024-02-26T08:26:37.002Z,1.45
2024-02-26T08:29:04.151Z,1.50
2024-02-26T08:31:31.738Z,1.40
2024-02-26T08:34:00.227Z,1.40
2024-02-26T08:36:27.705Z,1.30
2024-02-26T08:38:54.858Z,1.38
2024-02-26T08:41:21.843Z,1.40
2024-02-26T08:43:49.021Z,1.20
2024-02-26T08:46:15.992Z,1.10
2024-02-26T08:48:43.351Z,1.15
2024-02-26T08:51:11.193Z,1.27
2024-02-26T08:53:42.963Z,1.65
2024-02-26T08:56:18.631Z,1.33
2024-02-26T08:58:49.864Z,1.10
2024-02-26T09:01:17.744Z,1.20
2024-02-26T09:03:45.070Z,1.10
2024-02-26T09:06:13.225Z,1.10
2024-02-26T09:08:40.385Z,1.40
2024-02-26T09:11:07.907Z,1.75
2024-02-26T09:13:34.997Z,1.20
2024-02-26T09:16:02.038Z,1.25
2024-02-26T09:18:30.522Z,1.20
2024-02-26T09:20:57.877Z,1.35
2024-02-26T09:23:25.068Z,1.20
2024-02-26T09:25:52.007Z,1.10
2024-02-26T09:28:19.232Z,0.98
2024-02-26T09:30:46.541Z,1.10
2024-02-26T09:33:15.603Z,1.90
2024-02-26T09:35:43.144Z,1.30
2024-02-26T09:38:10.268Z,1.10
2024-02-26T09:40:39.088Z,1.10
2024-02-26T09:43:06.999Z,1.38
2024-02-26T09:45:36.165Z,1.10
2024-02-26T09:48:06.224Z,1.20
2024-02-26T09:50:33.404Z,1.30
2024-02-26T09:53:04.220Z,1.20
2024-02-26T09:55:31.328Z,1.42
2024-02-26T09:57:59.978Z,1.52
2024-02-26T10:00:34.024Z,1.33
2024-02-26T10:05:35.361Z,1.33
2024-02-26T10:08:02.962Z,1.15
2024-02-26T10:10:30.896Z,1.05
2024-02-26T10:12:58.058Z,1.40
2024-02-26T10:15:25.370Z,1.23
2024-02-26T10:17:52.561Z,1.23
2024-02-26T10:20:23.258Z,1.20
2024-02-26T10:22:50.717Z,1.42
2024-02-26T10:25:17.879Z,1.67
2024-02-26T10:27:44.975Z,1.92
2024-02-26T10:30:27.137Z,1.35
2024-02-26T10:32:54.812Z,1.20
2024-02-26T10:35:22.385Z,1.40
2024-02-26T10:37:51.001Z,1.50
2024-02-26T10:40:18.395Z,1.55
2024-02-26T10:42:47.124Z,1.48
2024-02-26T10:45:14.343Z,1.50
2024-02-26T10:47:43.688Z,1.50
2024-02-26T10:50:11.367Z,1.35
2024-02-26T10:52:38.573Z,1.65
2024-02-26T10:55:08.803Z,1.55
2024-02-26T10:57:42.696Z,1.50
2024-02-26T11:00:14.700Z,1.35
2024-02-26T11:02:42.591Z,1.40
2024-02-26T11:05:10.047Z,1.85
2024-02-26T11:07:38.458Z,1.55
2024-02-26T11:10:07.132Z,1.40
2024-02-26T11:12:39.564Z,1.77
2024-02-26T11:15:07.627Z,1.30
2024-02-26T11:17:37.838Z,1.58
2024-02-26T11:20:07.047Z,1.55
2024-02-26T11:22:34.782Z,2.30
2024-02-26T11:25:02.547Z,1.45
2024-02-26T11:27:36.762Z,1.45
2024-02-26T11:30:06.795Z,1.23
2024-02-26T11:32:36.660Z,1.70
2024-02-26T11:35:06.594Z,1.90
2024-02-26T11:37:37.618Z,2.22
2024-02-26T11:42:46.193Z,2.30
2024-02-26T11:45:41.214Z,2.63
2024-02-26T11:48:21.260Z,2.13
2024-02-26T11:50:54.373Z,2.53
2024-02-26T11:56:28.381Z,1.95
2024-02-26T11:59:03.640Z,1.70
2024-02-26T12:01:51.384Z,1.90
2024-02-26T12:04:27.011Z,1.45
2024-02-26T12:06:57.804Z,2.03
2024-02-26T12:09:39.464Z,2.00
2024-02-26T12:12:18.895Z,1.75
2024-02-26T12:14:57.634Z,1.75
2024-02-26T12:17:26.970Z,1.88
2024-02-26T12:19:55.283Z,1.75
2024-02-26T12:22:22.592Z,2.20
2024-02-26T12:24:59.559Z,1.90
2024-02-26T12:27:26.717Z,2.50
2024-02-26T12:29:54.674Z,1.60
2024-02-26T12:32:21.892Z,1.75
2024-02-26T12:34:49.362Z,1.88
2024-02-26T12:37:17.173Z,1.58
2024-02-26T12:39:44.428Z,2.67
2024-02-26T12:42:11.615Z,1.90
2024-02-26T12:44:39.043Z,1.50
2024-02-26T12:47:06.559Z,1.90
2024-02-26T12:49:34.037Z,1.90
2024-02-26T12:52:04.771Z,2.45
2024-02-26T12:54:33.542Z,2.17
2024-02-26T12:57:03.498Z,2.58
2024-02-26T12:59:31.666Z,2.13
2024-02-26T13:01:59.068Z,1.38
2024-02-26T13:04:31.492Z,2.10
2024-02-26T13:07:04.693Z,1.70
2024-02-26T13:09:37.017Z,2.42
2024-02-26T13:12:08.858Z,2.00
2024-02-26T13:14:36.576Z,1.85
2024-02-26T13:17:04.754Z,1.52
2024-02-26T13:19:32.199Z,1.50
2024-02-26T13:22:08.736Z,1.80
2024-02-26T13:24:37.939Z,1.95
2024-02-26T13:27:07.781Z,1.70
2024-02-26T13:29:35.172Z,1.50
2024-02-26T13:32:02.242Z,1.48
2024-02-26T13:34:32.193Z,1.35
2024-02-26T13:36:59.660Z,2.05
2024-02-26T13:39:28.224Z,1.38
2024-02-26T13:41:56.213Z,1.80
2024-02-26T13:44:23.805Z,1.67
2024-02-26T13:46:50.960Z,1.83
2024-02-26T13:49:18.258Z,2.13
2024-02-26T13:51:45.538Z,1.60
2024-02-26T13:54:13.134Z,1.50
2024-02-26T13:56:40.138Z,1.48
2024-02-26T13:59:07.104Z,1.60
2024-02-26T14:01:34.868Z,1.52
2024-02-26T14:04:04.095Z,1.60
2024-02-26T14:06:32.392Z,1.80
2024-02-26T14:09:00.391Z,1.98
2024-02-26T14:11:27.798Z,1.90
2024-02-26T14:13:54.988Z,2.10
2024-02-26T14:16:22.192Z,2.00
2024-02-26T14:18:49.466Z,1.90
2024-02-26T14:21:17.194Z,1.77
2024-02-26T14:23:45.835Z,2.20
2024-02-26T14:26:13.481Z,1.92
2024-02-26T14:28:40.501Z,1.80
2024-02-26T14:31:08.666Z,1.70
2024-02-26T14:33:38.566Z,1.42
2024-02-26T14:36:07.441Z,1.70
2024-02-26T14:38:34.459Z,2.13
2024-02-26T14:41:01.534Z,1.83
2024-02-26T14:43:28.675Z,1.92
2024-02-26T14:45:55.676Z,2.13
2024-02-26T14:48:22.752Z,1.80
2024-02-26T14:50:50.788Z,1.90
2024-02-26T14:53:18.790Z,1.88
2024-02-26T14:55:46.047Z,1.80
2024-02-26T14:58:13.225Z,1.73
2024-02-26T15:00:40.764Z,2.03
2024-02-26T15:03:08.053Z,1.85
2024-02-26T15:05:35.970Z,1.77
2024-02-26T15:08:03.872Z,2.22
2024-02-26T15:10:30.855Z,1.83
2024-02-26T15:12:58.053Z,1.60
2024-02-26T15:15:25.766Z,2.58
2024-02-26T15:17:52.971Z,1.60
2024-02-26T15:20:20.535Z,1.80
2024-02-26T15:22:48.058Z,1.50
2024-02-26T15:25:16.356Z,1.50
2024-02-26T15:27:43.850Z,1.70
2024-02-26T15:30:11.562Z,1.60
2024-02-26T15:32:39.698Z,1.85
2024-02-26T15:35:07.965Z,2.03
2024-02-26T15:37:35.123Z,2.05
2024-02-26T15:40:02.261Z,1.48
2024-02-26T15:42:29.515Z,2.08
2024-02-26T15:44:56.638Z,1.60
2024-02-26T15:47:23.715Z,1.48
2024-02-26T15:49:50.913Z,1.50
2024-02-26T15:52:18.241Z,1.63
2024-02-26T15:54:45.306Z,2.00
2024-02-26T15:57:17.889Z,1.75
2024-02-26T15:59:44.926Z,1.60
2024-02-26T16:02:12.107Z,1.90
2024-02-26T16:04:39.500Z,3.20
2024-02-26T16:07:11.792Z,4.32
2024-02-26T16:09:39.233Z,2.90
2024-02-26T16:12:16.645Z,2.67
2024-02-26T16:14:51.841Z,2.45
2024-02-26T16:17:33.254Z,2.10
2024-02-26T16:20:01.165Z,2.00
2024-02-26T16:22:29.186Z,1.85
2024-02-26T16:24:56.241Z,2.25
2024-02-26T16:27:23.608Z,2.10
2024-02-26T16:29:50.704Z,1.90
2024-02-26T16:32:18.104Z,2.67
2024-02-26T16:34:45.418Z,2.05
2024-02-26T16:37:13.538Z,2.08
2024-02-26T16:39:41.373Z,2.40
2024-02-26T16:42:10.392Z,2.40
2024-02-26T16:44:37.998Z,2.10
2024-02-26T16:47:07.109Z,2.28
2024-02-26T16:49:35.435Z,1.75
2024-02-26T16:52:03.788Z,2.00
2024-02-26T16:54:31.078Z,1.90
2024-02-26T16:56:58.406Z,2.00
2024-02-26T16:59:29.677Z,2.05
2024-02-26T17:01:57.595Z,1.88
2024-02-26T17:04:24.820Z,2.03
2024-02-26T17:06:54.589Z,2.00
2024-02-26T17:09:22.266Z,2.03
2024-02-26T17:11:49.623Z,2.00
2024-02-26T17:14:17.346Z,1.73
2024-02-26T17:16:44.606Z,1.92
2024-02-26T17:19:11.940Z,2.00
2024-02-26T17:21:39.157Z,1.83
2024-02-26T17:24:06.674Z,2.17
2024-02-26T17:26:34.013Z,2.28
2024-02-26T17:29:02.934Z,3.15
2024-02-26T17:31:36.002Z,2.80
2024-02-26T17:34:03.445Z,3.08
2024-02-26T17:36:30.709Z,2.40
2024-02-26T17:38:57.785Z,3.30
2024-02-26T17:41:24.924Z,2.55
2024-02-26T17:43:51.900Z,3.85
2024-02-26T17:46:18.898Z,2.50
2024-02-26T17:48:47.070Z,2.70
2024-02-26T17:51:14.324Z,2.17
2024-02-26T17:53:41.296Z,3.05
2024-02-26T17:56:08.769Z,2.60
2024-02-26T17:58:38.336Z,3.00
2024-02-26T18:01:05.464Z,3.10
2024-02-26T18:03:32.658Z,2.60
2024-02-26T18:06:01.217Z,2.85
2024-02-26T18:08:29.533Z,2.88
2024-02-26T18:10:58.788Z,2.90
2024-02-26T18:13:25.895Z,2.95
2024-02-26T18:15:53.118Z,3.13
2024-02-26T18:18:20.263Z,2.22
2024-02-26T18:20:47.384Z,2.70
2024-02-26T18:23:15.676Z,2.90
2024-02-26T18:25:42.750Z,3.30
2024-02-26T18:28:09.819Z,2.88
2024-02-26T18:30:36.849Z,3.17
2024-02-26T18:33:05.018Z,3.22
2024-02-26T18:35:32.248Z,3.10
2024-02-26T18:37:59.298Z,3.45
2024-02-26T18:40:26.468Z,3.53
2024-02-26T18:42:53.442Z,3.47
2024-02-26T18:45:20.553Z,3.10
2024-02-26T18:47:47.896Z,3.30
2024-02-26T18:50:17.884Z,3.08
2024-02-26T18:52:47.423Z,3.10
2024-02-26T18:55:14.685Z,2.88
2024-02-26T18:57:42.861Z,2.72
2024-02-26T19:00:10.946Z,2.58
2024-02-26T19:02:37.992Z,3.15
2024-02-26T19:05:05.720Z,3.33
2024-02-26T19:07:32.735Z,2.95
2024-02-26T19:09:59.763Z,2.95
2024-02-26T19:12:27.172Z,2.80
2024-02-26T19:14:55.271Z,3.55
2024-02-26T19:17:23.556Z,2.72
2024-02-26T19:19:50.667Z,3.30
2024-02-26T19:22:20.155Z,2.80
2024-02-26T19:24:47.251Z,2.65
2024-02-26T19:27:15.244Z,3.17
2024-02-26T19:29:42.322Z,3.20
2024-02-26T19:32:12.454Z,2.50
2024-02-26T19:34:40.480Z,5.07
2024-02-26T19:37:07.893Z,2.90
2024-02-26T19:39:35.089Z,3.00
2024-02-26T19:42:02.459Z,2.70
2024-02-26T19:44:29.579Z,2.75
2024-02-26T19:46:56.665Z,2.92
2024-02-26T19:49:23.911Z,2.33
2024-02-26T19:51:51.799Z,3.13
2024-02-26T19:54:18.838Z,2.53
2024-02-26T19:56:47.952Z,2.53
2024-02-26T19:59:18.356Z,2.75
2024-02-26T20:01:45.444Z,2.80
2024-02-26T20:04:13.844Z,2.85
2024-02-26T20:06:42.028Z,2.78
2024-02-26T20:09:09.509Z,2.72
2024-02-26T20:11:40.822Z,2.60
2024-02-26T20:14:12.614Z,2.75
2024-02-26T20:16:40.045Z,2.65
2024-02-26T20:19:09.993Z,2.75
2024-02-26T20:21:41.575Z,3.30
2024-02-26T20:24:09.267Z,7.25
2024-02-26T20:26:37.222Z,9.25
2024-02-26T20:29:04.821Z,6.78
2024-02-26T20:31:33.222Z,5.15
2024-02-26T20:34:02.061Z,4.20
2024-02-26T20:36:30.001Z,4.13
2024-02-26T20:38:57.559Z,4.43
2024-02-26T20:41:24.744Z,3.85
2024-02-26T20:43:51.857Z,3.78
2024-02-26T20:46:19.039Z,3.45
2024-02-26T20:48:46.094Z,3.45
2024-02-26T20:51:13.402Z,3.65
2024-02-26T20:53:42.443Z,3.72
2024-02-26T20:56:09.810Z,3.50
2024-02-26T20:58:37.474Z,3.63
2024-02-26T21:01:04.812Z,3.75
2024-02-26T21:03:32.073Z,3.58
2024-02-26T21:05:59.214Z,3.40
2024-02-26T21:08:33.126Z,3.78
2024-02-26T21:11:06.977Z,3.92
2024-02-26T21:13:37.811Z,3.35
2024-02-26T21:16:06.130Z,3.00
2024-02-26T21:18:35.525Z,3.17
2024-02-26T21:21:05.985Z,2.97
2024-02-26T21:23:33.280Z,3.55
2024-02-26T21:26:00.301Z,3.38
2024-02-26T21:28:27.348Z,3.00
2024-02-26T21:30:57.818Z,3.10
2024-02-26T21:33:26.125Z,3.90
2024-02-26T21:35:55.233Z,2.80
2024-02-26T21:38:29.162Z,2.85
2024-02-26T21:41:02.496Z,2.95
2024-02-26T21:43:29.548Z,3.22
2024-02-26T21:45:56.608Z,3.28
2024-02-26T21:48:23.778Z,3.20
2024-02-26T21:50:50.977Z,2.95
2024-02-26T21:53:18.020Z,3.00
2024-02-26T21:55:45.978Z,2.97
2024-02-26T21:58:13.123Z,2.90
2024-02-26T22:00:40.129Z,3.50
2024-02-26T22:03:07.275Z,3.00
2024-02-26T22:05:34.505Z,3.08
2024-02-26T22:08:01.489Z,2.80
2024-02-26T22:10:28.742Z,3.22
2024-02-26T22:12:55.789Z,3.15
2024-02-26T22:15:22.884Z,2.80
2024-02-26T22:17:49.916Z,3.53
2024-02-26T22:20:17.122Z,2.92
2024-02-26T22:22:44.088Z,2.72
2024-02-26T22:25:11.131Z,2.83
2024-02-26T22:27:38.645Z,3.60
2024-02-26T22:30:06.260Z,2.75
2024-02-26T22:32:33.343Z,4.32
2024-02-26T22:35:00.520Z,3.22
2024-02-26T22:37:27.652Z,2.97
2024-02-26T22:39:54.827Z,2.63
2024-02-26T22:42:22.294Z,3.15
2024-02-26T22:44:49.408Z,2.70
2024-02-26T22:47:16.493Z,3.30
2024-02-26T22:49:43.622Z,2.90
2024-02-26T22:52:10.686Z,2.40
2024-02-26T22:54:37.874Z,2.85
2024-02-26T22:57:06.417Z,2.78
2024-02-26T22:59:33.375Z,3.10
2024-02-26T23:02:00.431Z,2.22
2024-02-26T23:04:27.924Z,3.13
2024-02-26T23:06:55.232Z,2.90
2024-02-26T23:09:23.154Z,2.90
2024-02-26T23:11:50.536Z,3.28
2024-02-26T23:14:17.628Z,2.80
2024-02-26T23:16:46.408Z,2.90
2024-02-26T23:19:13.737Z,2.83
2024-02-26T23:21:43.050Z,2.90
